sensor_id;sensor_type;location;lat;lon;timestamp;P1;durP1;ratioP1;P2;durP2;ratioP2
75062;SDS011;63981;51.052;13.754;2023-05-10T00:00:27;760.88;;;680.55;;
75062;SDS011;63981;51.052;13.754;2023-05-10T00:02:52;760.38;;;680.08;;
75062;SDS011;63981;51.052;13.754;2023-05-10T00:05:18;758.10;;;678.28;;
75062;SDS011;63981;51.052;13.754;2023-05-10T00:07:44;760.08;;;680.00;;
75062;SDS011;63981;51.052;13.754;2023-05-10T00:10:10;757.30;;;677.45;;
75062;SDS011;63981;51.052;13.754;2023-05-10T00:12:37;752.85;;;674.05;;
75062;SDS011;63981;51.052;13.754;2023-05-10T00:15:03;757.75;;;677.70;;
75062;SDS011;63981;51.052;13.754;2023-05-10T00:17:29;756.40;;;676.55;;
75062;SDS011;63981;51.052;13.754;2023-05-10T00:19:55;757.58;;;678.22;;
75062;SDS011;63981;51.052;13.754;2023-05-10T00:22:21;759.50;;;679.83;;
75062;SDS011;63981;51.052;13.754;2023-05-10T00:24:47;755.75;;;677.00;;
75062;SDS011;63981;51.052;13.754;2023-05-10T00:27:12;757.30;;;677.85;;
75062;SDS011;63981;51.052;13.754;2023-05-10T00:29:38;756.60;;;677.22;;
75062;SDS011;63981;51.052;13.754;2023-05-10T00:32:04;756.83;;;677.50;;
75062;SDS011;63981;51.052;13.754;2023-05-10T00:34:30;754.70;;;675.45;;
75062;SDS011;63981;51.052;13.754;2023-05-10T00:36:56;753.88;;;675.47;;
75062;SDS011;63981;51.052;13.754;2023-05-10T00:39:22;754.65;;;676.35;;
75062;SDS011;63981;51.052;13.754;2023-05-10T00:41:48;754.25;;;675.22;;
75062;SDS011;63981;51.052;13.754;2023-05-10T00:44:15;756.63;;;677.28;;
75062;SDS011;63981;51.052;13.754;2023-05-10T00:46:41;758.55;;;680.05;;
75062;SDS011;63981;51.052;13.754;2023-05-10T00:49:07;756.47;;;677.38;;
75062;SDS011;63981;51.052;13.754;2023-05-10T00:51:33;754.45;;;675.40;;
75062;SDS011;63981;51.052;13.754;2023-05-10T00:53:59;751.17;;;673.15;;
75062;SDS011;63981;51.052;13.754;2023-05-10T00:56:25;754.30;;;675.25;;
75062;SDS011;63981;51.052;13.754;2023-05-10T00:58:53;756.20;;;677.25;;
75062;SDS011;63981;51.052;13.754;2023-05-10T01:01:19;753.33;;;674.97;;
75062;SDS011;63981;51.052;13.754;2023-05-10T01:03:46;755.22;;;676.28;;
75062;SDS011;63981;51.052;13.754;2023-05-10T01:06:30;754.10;;;676.10;;
75062;SDS011;63981;51.052;13.754;2023-05-10T01:09:15;755.42;;;676.80;;
75062;SDS011;63981;51.052;13.754;2023-05-10T01:11:59;753.40;;;675.83;;
75062;SDS011;63981;51.052;13.754;2023-05-10T01:14:47;754.03;;;676.40;;
75062;SDS011;63981;51.052;13.754;2023-05-10T01:17:32;751.90;;;674.33;;
75062;SDS011;63981;51.052;13.754;2023-05-10T01:20:17;751.15;;;674.05;;
75062;SDS011;63981;51.052;13.754;2023-05-10T01:23:16;752.83;;;674.83;;
75062;SDS011;63981;51.052;13.754;2023-05-10T01:38:22;751.03;;;674.67;;
75062;SDS011;63981;51.052;13.754;2023-05-10T01:41:18;752.30;;;675.58;;
75062;SDS011;63981;51.052;13.754;2023-05-10T01:47:08;751.13;;;675.03;;
75062;SDS011;63981;51.052;13.754;2023-05-10T01:49:55;750.47;;;674.65;;
75062;SDS011;63981;51.052;13.754;2023-05-10T01:52:41;755.67;;;678.47;;
75062;SDS011;63981;51.052;13.754;2023-05-10T01:55:29;754.67;;;677.70;;
75062;SDS011;63981;51.052;13.754;2023-05-10T01:58:19;751.42;;;675.40;;
75062;SDS011;63981;51.052;13.754;2023-05-10T02:01:09;748.22;;;672.88;;
75062;SDS011;63981;51.052;13.754;2023-05-10T02:03:54;748.20;;;672.65;;
75062;SDS011;63981;51.052;13.754;2023-05-10T02:06:40;752.95;;;676.30;;
75062;SDS011;63981;51.052;13.754;2023-05-10T02:09:26;753.40;;;676.63;;
75062;SDS011;63981;51.052;13.754;2023-05-10T02:12:13;750.30;;;674.67;;
75062;SDS011;63981;51.052;13.754;2023-05-10T02:14:59;750.33;;;674.78;;
75062;SDS011;63981;51.052;13.754;2023-05-10T02:17:46;747.28;;;671.97;;
75062;SDS011;63981;51.052;13.754;2023-05-10T02:23:17;750.33;;;674.88;;
75062;SDS011;63981;51.052;13.754;2023-05-10T02:26:02;751.33;;;675.22;;
75062;SDS011;63981;51.052;13.754;2023-05-10T02:28:49;752.75;;;676.53;;
75062;SDS011;63981;51.052;13.754;2023-05-10T02:31:35;749.63;;;673.60;;
75062;SDS011;63981;51.052;13.754;2023-05-10T02:34:21;749.40;;;674.20;;
75062;SDS011;63981;51.052;13.754;2023-05-10T02:37:05;748.67;;;673.47;;
75062;SDS011;63981;51.052;13.754;2023-05-10T02:39:50;750.70;;;674.92;;
75062;SDS011;63981;51.052;13.754;2023-05-10T02:42:38;750.78;;;675.70;;
75062;SDS011;63981;51.052;13.754;2023-05-10T02:45:28;755.88;;;679.80;;
75062;SDS011;63981;51.052;13.754;2023-05-10T02:48:15;753.45;;;677.65;;
75062;SDS011;63981;51.052;13.754;2023-05-10T02:53:48;751.10;;;676.35;;
75062;SDS011;63981;51.052;13.754;2023-05-10T02:56:35;744.63;;;670.67;;
75062;SDS011;63981;51.052;13.754;2023-05-10T02:59:24;749.13;;;674.70;;
75062;SDS011;63981;51.052;13.754;2023-05-10T03:02:09;752.50;;;677.25;;
75062;SDS011;63981;51.052;13.754;2023-05-10T03:04:54;749.75;;;674.47;;
75062;SDS011;63981;51.052;13.754;2023-05-10T03:07:20;748.88;;;674.58;;
75062;SDS011;63981;51.052;13.754;2023-05-10T03:09:48;754.22;;;678.67;;
75062;SDS011;63981;51.052;13.754;2023-05-10T03:12:27;753.13;;;677.67;;
75062;SDS011;63981;51.052;13.754;2023-05-10T03:17:47;751.22;;;676.60;;
75062;SDS011;63981;51.052;13.754;2023-05-10T03:20:23;750.75;;;675.97;;
75062;SDS011;63981;51.052;13.754;2023-05-10T03:22:53;753.45;;;677.65;;
75062;SDS011;63981;51.052;13.754;2023-05-10T03:25:26;755.53;;;680.10;;
75062;SDS011;63981;51.052;13.754;2023-05-10T03:27:52;750.55;;;675.40;;
75062;SDS011;63981;51.052;13.754;2023-05-10T03:30:20;752.97;;;677.42;;
75062;SDS011;63981;51.052;13.754;2023-05-10T03:32:46;751.28;;;676.67;;
75062;SDS011;63981;51.052;13.754;2023-05-10T03:35:15;748.97;;;674.33;;
75062;SDS011;63981;51.052;13.754;2023-05-10T03:37:41;749.95;;;675.63;;
75062;SDS011;63981;51.052;13.754;2023-05-10T03:40:07;755.53;;;680.10;;
75062;SDS011;63981;51.052;13.754;2023-05-10T03:42:36;750.38;;;675.75;;
75062;SDS011;63981;51.052;13.754;2023-05-10T03:45:02;753.13;;;677.80;;
75062;SDS011;63981;51.052;13.754;2023-05-10T03:47:29;752.45;;;677.13;;
75062;SDS011;63981;51.052;13.754;2023-05-10T03:49:55;749.90;;;675.33;;
75062;SDS011;63981;51.052;13.754;2023-05-10T03:52:21;753.78;;;678.65;;
75062;SDS011;63981;51.052;13.754;2023-05-10T03:54:48;751.78;;;676.75;;
75062;SDS011;63981;51.052;13.754;2023-05-10T03:57:14;749.47;;;676.33;;
75062;SDS011;63981;51.052;13.754;2023-05-10T03:59:40;746.58;;;672.33;;
75062;SDS011;63981;51.052;13.754;2023-05-10T04:02:06;749.60;;;675.78;;
75062;SDS011;63981;51.052;13.754;2023-05-10T04:04:31;750.97;;;677.40;;
75062;SDS011;63981;51.052;13.754;2023-05-10T04:06:57;749.65;;;675.28;;
75062;SDS011;63981;51.052;13.754;2023-05-10T04:09:23;744.22;;;670.97;;
75062;SDS011;63981;51.052;13.754;2023-05-10T04:11:49;746.88;;;673.08;;
75062;SDS011;63981;51.052;13.754;2023-05-10T04:14:15;745.22;;;671.40;;
75062;SDS011;63981;51.052;13.754;2023-05-10T04:16:42;742.75;;;669.50;;
75062;SDS011;63981;51.052;13.754;2023-05-10T04:19:08;748.50;;;673.83;;
75062;SDS011;63981;51.052;13.754;2023-05-10T04:21:34;745.78;;;671.88;;
75062;SDS011;63981;51.052;13.754;2023-05-10T04:24:00;744.33;;;670.53;;
75062;SDS011;63981;51.052;13.754;2023-05-10T04:26:26;741.40;;;667.55;;
75062;SDS011;63981;51.052;13.754;2023-05-10T04:28:51;742.10;;;667.95;;
75062;SDS011;63981;51.052;13.754;2023-05-10T04:31:17;743.70;;;668.58;;
75062;SDS011;63981;51.052;13.754;2023-05-10T04:33:43;744.65;;;669.72;;
75062;SDS011;63981;51.052;13.754;2023-05-10T04:36:09;744.60;;;669.95;;
75062;SDS011;63981;51.052;13.754;2023-05-10T04:38:35;746.50;;;671.22;;
75062;SDS011;63981;51.052;13.754;2023-05-10T04:41:08;753.45;;;677.03;;
75062;SDS011;63981;51.052;13.754;2023-05-10T04:43:36;746.65;;;670.15;;
75062;SDS011;63981;51.052;13.754;2023-05-10T04:46:03;745.42;;;669.08;;
75062;SDS011;63981;51.052;13.754;2023-05-10T04:48:29;744.33;;;667.83;;
75062;SDS011;63981;51.052;13.754;2023-05-10T04:50:55;749.15;;;672.00;;
75062;SDS011;63981;51.052;13.754;2023-05-10T04:53:21;741.45;;;665.95;;
75062;SDS011;63981;51.052;13.754;2023-05-10T04:55:47;743.85;;;667.08;;
75062;SDS011;63981;51.052;13.754;2023-05-10T04:58:14;743.53;;;666.67;;
75062;SDS011;63981;51.052;13.754;2023-05-10T05:00:40;742.72;;;666.33;;
75062;SDS011;63981;51.052;13.754;2023-05-10T05:03:06;743.20;;;666.17;;
75062;SDS011;63981;51.052;13.754;2023-05-10T05:05:31;743.35;;;666.10;;
75062;SDS011;63981;51.052;13.754;2023-05-10T05:07:57;742.83;;;665.53;;
75062;SDS011;63981;51.052;13.754;2023-05-10T05:10:23;743.78;;;666.50;;
75062;SDS011;63981;51.052;13.754;2023-05-10T05:12:48;744.50;;;667.13;;
75062;SDS011;63981;51.052;13.754;2023-05-10T05:15:14;740.95;;;664.40;;
75062;SDS011;63981;51.052;13.754;2023-05-10T05:17:42;744.40;;;667.22;;
75062;SDS011;63981;51.052;13.754;2023-05-10T05:20:08;740.90;;;664.05;;
75062;SDS011;63981;51.052;13.754;2023-05-10T05:22:35;745.35;;;667.33;;
75062;SDS011;63981;51.052;13.754;2023-05-10T05:25:02;745.33;;;667.35;;
75062;SDS011;63981;51.052;13.754;2023-05-10T05:27:28;742.80;;;664.67;;
75062;SDS011;63981;51.052;13.754;2023-05-10T05:29:55;743.20;;;665.92;;
75062;SDS011;63981;51.052;13.754;2023-05-10T05:32:21;744.20;;;666.65;;
75062;SDS011;63981;51.052;13.754;2023-05-10T05:34:48;743.97;;;666.42;;
75062;SDS011;63981;51.052;13.754;2023-05-10T05:37:14;740.40;;;662.88;;
75062;SDS011;63981;51.052;13.754;2023-05-10T05:39:41;743.97;;;666.00;;
75062;SDS011;63981;51.052;13.754;2023-05-10T05:42:08;745.30;;;666.28;;
75062;SDS011;63981;51.052;13.754;2023-05-10T05:44:34;744.80;;;666.10;;
75062;SDS011;63981;51.052;13.754;2023-05-10T05:47:00;745.28;;;666.58;;
75062;SDS011;63981;51.052;13.754;2023-05-10T05:49:26;746.67;;;667.65;;
75062;SDS011;63981;51.052;13.754;2023-05-10T05:51:52;741.40;;;663.40;;
75062;SDS011;63981;51.052;13.754;2023-05-10T05:54:18;740.85;;;662.25;;
75062;SDS011;63981;51.052;13.754;2023-05-10T05:56:44;742.05;;;663.83;;
75062;SDS011;63981;51.052;13.754;2023-05-10T05:59:10;742.90;;;664.80;;
75062;SDS011;63981;51.052;13.754;2023-05-10T06:01:36;739.47;;;661.60;;
75062;SDS011;63981;51.052;13.754;2023-05-10T06:04:02;743.53;;;664.38;;
75062;SDS011;63981;51.052;13.754;2023-05-10T06:06:46;744.85;;;665.80;;
75062;SDS011;63981;51.052;13.754;2023-05-10T06:09:12;741.38;;;662.40;;
75062;SDS011;63981;51.052;13.754;2023-05-10T06:11:38;742.05;;;664.10;;
75062;SDS011;63981;51.052;13.754;2023-05-10T06:14:05;742.65;;;663.88;;
75062;SDS011;63981;51.052;13.754;2023-05-10T06:16:33;738.38;;;660.17;;
75062;SDS011;63981;51.052;13.754;2023-05-10T06:18:59;737.95;;;659.67;;
75062;SDS011;63981;51.052;13.754;2023-05-10T06:21:25;742.78;;;663.00;;
75062;SDS011;63981;51.052;13.754;2023-05-10T06:23:51;741.58;;;661.65;;
75062;SDS011;63981;51.052;13.754;2023-05-10T06:26:17;740.95;;;661.35;;
75062;SDS011;63981;51.052;13.754;2023-05-10T06:28:43;745.22;;;664.95;;
75062;SDS011;63981;51.052;13.754;2023-05-10T06:31:08;740.08;;;660.47;;
75062;SDS011;63981;51.052;13.754;2023-05-10T06:33:36;744.47;;;663.90;;
75062;SDS011;63981;51.052;13.754;2023-05-10T06:36:02;742.92;;;663.28;;
75062;SDS011;63981;51.052;13.754;2023-05-10T06:38:28;743.35;;;663.35;;
75062;SDS011;63981;51.052;13.754;2023-05-10T06:40:54;744.40;;;663.50;;
75062;SDS011;63981;51.052;13.754;2023-05-10T06:43:20;745.35;;;664.28;;
75062;SDS011;63981;51.052;13.754;2023-05-10T06:45:47;745.33;;;664.28;;
75062;SDS011;63981;51.052;13.754;2023-05-10T06:48:13;743.83;;;663.33;;
75062;SDS011;63981;51.052;13.754;2023-05-10T06:50:39;743.92;;;662.17;;
75062;SDS011;63981;51.052;13.754;2023-05-10T06:53:05;742.33;;;661.05;;
75062;SDS011;63981;51.052;13.754;2023-05-10T06:55:30;746.30;;;664.22;;
75062;SDS011;63981;51.052;13.754;2023-05-10T06:57:56;747.80;;;665.38;;
75062;SDS011;63981;51.052;13.754;2023-05-10T07:00:22;741.22;;;659.53;;
75062;SDS011;63981;51.052;13.754;2023-05-10T07:02:48;746.60;;;660.63;;
75062;SDS011;63981;51.052;13.754;2023-05-10T07:05:14;747.97;;;662.20;;
75062;SDS011;63981;51.052;13.754;2023-05-10T07:07:40;745.10;;;662.30;;
75062;SDS011;63981;51.052;13.754;2023-05-10T07:10:06;743.55;;;661.38;;
75062;SDS011;63981;51.052;13.754;2023-05-10T07:12:33;742.10;;;659.72;;
75062;SDS011;63981;51.052;13.754;2023-05-10T07:14:59;744.25;;;660.42;;
75062;SDS011;63981;51.052;13.754;2023-05-10T07:17:24;731.95;;;651.08;;
75062;SDS011;63981;51.052;13.754;2023-05-10T07:19:50;795.25;;;675.10;;
75062;SDS011;63981;51.052;13.754;2023-05-10T07:22:16;786.03;;;671.40;;
75062;SDS011;63981;51.052;13.754;2023-05-10T07:24:42;800.72;;;673.30;;
75062;SDS011;63981;51.052;13.754;2023-05-10T07:27:08;795.85;;;671.60;;
75062;SDS011;63981;51.052;13.754;2023-05-10T07:29:34;814.63;;;673.42;;
75062;SDS011;63981;51.052;13.754;2023-05-10T07:32:00;807.97;;;672.05;;
75062;SDS011;63981;51.052;13.754;2023-05-10T07:34:26;808.15;;;669.83;;
75062;SDS011;63981;51.052;13.754;2023-05-10T07:36:53;820.55;;;669.42;;
75062;SDS011;63981;51.052;13.754;2023-05-10T07:39:19;826.00;;;670.65;;
75062;SDS011;63981;51.052;13.754;2023-05-10T07:41:46;838.45;;;670.17;;
75062;SDS011;63981;51.052;13.754;2023-05-10T07:44:12;844.50;;;666.20;;
75062;SDS011;63981;51.052;13.754;2023-05-10T07:46:37;843.47;;;664.20;;
75062;SDS011;63981;51.052;13.754;2023-05-10T07:49:03;845.75;;;663.33;;
75062;SDS011;63981;51.052;13.754;2023-05-10T07:51:29;845.60;;;659.83;;
75062;SDS011;63981;51.052;13.754;2023-05-10T07:53:55;854.08;;;662.55;;
75062;SDS011;63981;51.052;13.754;2023-05-10T07:59:01;849.88;;;659.55;;
75062;SDS011;63981;51.052;13.754;2023-05-10T08:01:33;852.10;;;654.50;;
75062;SDS011;63981;51.052;13.754;2023-05-10T08:04:00;857.03;;;652.40;;
75062;SDS011;63981;51.052;13.754;2023-05-10T08:06:27;852.30;;;651.38;;
75062;SDS011;63981;51.052;13.754;2023-05-10T08:08:55;857.10;;;650.28;;
75062;SDS011;63981;51.052;13.754;2023-05-10T08:11:21;857.88;;;648.20;;
75062;SDS011;63981;51.052;13.754;2023-05-10T08:13:48;859.38;;;648.42;;
75062;SDS011;63981;51.052;13.754;2023-05-10T08:16:15;860.72;;;649.78;;
75062;SDS011;63981;51.052;13.754;2023-05-10T08:18:42;852.92;;;648.03;;
75062;SDS011;63981;51.052;13.754;2023-05-10T08:21:09;857.45;;;643.55;;
75062;SDS011;63981;51.052;13.754;2023-05-10T08:23:36;865.42;;;641.25;;
75062;SDS011;63981;51.052;13.754;2023-05-10T08:26:02;872.00;;;638.88;;
75062;SDS011;63981;51.052;13.754;2023-05-10T08:28:28;886.67;;;634.88;;
75062;SDS011;63981;51.052;13.754;2023-05-10T08:30:55;888.50;;;631.50;;
75062;SDS011;63981;51.052;13.754;2023-05-10T08:33:21;893.83;;;628.63;;
75062;SDS011;63981;51.052;13.754;2023-05-10T08:35:47;892.85;;;626.25;;
75062;SDS011;63981;51.052;13.754;2023-05-10T08:38:13;898.47;;;625.45;;
75062;SDS011;63981;51.052;13.754;2023-05-10T08:40:39;893.05;;;621.45;;
75062;SDS011;63981;51.052;13.754;2023-05-10T08:43:08;892.88;;;619.33;;
75062;SDS011;63981;51.052;13.754;2023-05-10T08:45:39;893.22;;;618.80;;
75062;SDS011;63981;51.052;13.754;2023-05-10T08:48:06;889.13;;;620.05;;
75062;SDS011;63981;51.052;13.754;2023-05-10T08:50:35;887.03;;;613.08;;
75062;SDS011;63981;51.052;13.754;2023-05-10T08:53:03;881.25;;;616.30;;
75062;SDS011;63981;51.052;13.754;2023-05-10T08:55:31;850.33;;;597.95;;
75062;SDS011;63981;51.052;13.754;2023-05-10T09:00:25;840.22;;;594.88;;
75062;SDS011;63981;51.052;13.754;2023-05-10T09:02:52;836.75;;;595.85;;
75062;SDS011;63981;51.052;13.754;2023-05-10T09:05:18;902.40;;;622.13;;
75062;SDS011;63981;51.052;13.754;2023-05-10T09:07:44;942.35;;;639.90;;
75062;SDS011;63981;51.052;13.754;2023-05-10T09:10:10;1000.60;;;662.75;;
75062;SDS011;63981;51.052;13.754;2023-05-10T09:12:37;997.90;;;656.72;;
75062;SDS011;63981;51.052;13.754;2023-05-10T09:15:03;996.22;;;657.97;;
75062;SDS011;63981;51.052;13.754;2023-05-10T09:17:31;986.28;;;647.45;;
75062;SDS011;63981;51.052;13.754;2023-05-10T09:20:00;996.85;;;653.90;;
75062;SDS011;63981;51.052;13.754;2023-05-10T09:22:28;1030.10;;;662.08;;
75062;SDS011;63981;51.052;13.754;2023-05-10T09:25:04;991.63;;;649.53;;
75062;SDS011;63981;51.052;13.754;2023-05-10T09:27:38;892.40;;;611.13;;
75062;SDS011;63981;51.052;13.754;2023-05-10T09:30:05;889.90;;;604.47;;
75062;SDS011;63981;51.052;13.754;2023-05-10T09:32:36;886.85;;;606.80;;
75062;SDS011;63981;51.052;13.754;2023-05-10T09:37:40;872.65;;;592.47;;
75062;SDS011;63981;51.052;13.754;2023-05-10T09:40:12;874.63;;;590.38;;
75062;SDS011;63981;51.052;13.754;2023-05-10T09:42:42;867.17;;;585.50;;
75062;SDS011;63981;51.052;13.754;2023-05-10T09:45:16;871.58;;;582.95;;
75062;SDS011;63981;51.052;13.754;2023-05-10T09:47:42;867.17;;;581.38;;
75062;SDS011;63981;51.052;13.754;2023-05-10T09:50:08;868.60;;;581.88;;
75062;SDS011;63981;51.052;13.754;2023-05-10T09:52:50;898.42;;;590.55;;
75062;SDS011;63981;51.052;13.754;2023-05-10T09:55:24;894.25;;;582.72;;
75062;SDS011;63981;51.052;13.754;2023-05-10T09:58:01;896.10;;;583.88;;
75062;SDS011;63981;51.052;13.754;2023-05-10T10:00:27;894.13;;;579.78;;
75062;SDS011;63981;51.052;13.754;2023-05-10T10:02:59;895.85;;;580.05;;
75062;SDS011;63981;51.052;13.754;2023-05-10T10:05:32;893.80;;;575.50;;
75062;SDS011;63981;51.052;13.754;2023-05-10T10:08:00;897.85;;;574.22;;
75062;SDS011;63981;51.052;13.754;2023-05-10T10:10:28;930.33;;;590.55;;
75062;SDS011;63981;51.052;13.754;2023-05-10T10:12:54;922.17;;;576.38;;
75062;SDS011;63981;51.052;13.754;2023-05-10T10:15:21;901.17;;;563.35;;
75062;SDS011;63981;51.052;13.754;2023-05-10T10:17:48;1096.32;;;642.35;;
75062;SDS011;63981;51.052;13.754;2023-05-10T10:20:15;1002.80;;;611.22;;
75062;SDS011;63981;51.052;13.754;2023-05-10T10:22:42;976.33;;;597.58;;
75062;SDS011;63981;51.052;13.754;2023-05-10T10:25:12;967.15;;;588.90;;
75062;SDS011;63981;51.052;13.754;2023-05-10T10:35:43;1292.22;;;757.42;;
75062;SDS011;63981;51.052;13.754;2023-05-10T10:38:11;1111.85;;;685.20;;
75062;SDS011;63981;51.052;13.754;2023-05-10T10:40:38;1064.75;;;644.88;;
75062;SDS011;63981;51.052;13.754;2023-05-10T10:43:23;1063.05;;;635.92;;
75062;SDS011;63981;51.052;13.754;2023-05-10T10:48:37;1017.03;;;616.42;;
75062;SDS011;63981;51.052;13.754;2023-05-10T10:51:03;1014.15;;;611.33;;
75062;SDS011;63981;51.052;13.754;2023-05-10T10:53:29;1001.97;;;605.45;;
75062;SDS011;63981;51.052;13.754;2023-05-10T10:56:08;995.97;;;603.13;;
75062;SDS011;63981;51.052;13.754;2023-05-10T10:58:36;993.38;;;599.15;;
75062;SDS011;63981;51.052;13.754;2023-05-10T11:01:14;997.17;;;598.30;;
75062;SDS011;63981;51.052;13.754;2023-05-10T11:03:41;1006.30;;;605.53;;
75062;SDS011;63981;51.052;13.754;2023-05-10T11:06:39;989.33;;;599.78;;
75062;SDS011;63981;51.052;13.754;2023-05-10T11:09:09;1002.72;;;605.92;;
75062;SDS011;63981;51.052;13.754;2023-05-10T11:11:48;999.90;;;608.13;;
75062;SDS011;63981;51.052;13.754;2023-05-10T11:14:17;988.65;;;600.78;;
75062;SDS011;63981;51.052;13.754;2023-05-10T11:16:45;975.97;;;593.58;;
75062;SDS011;63981;51.052;13.754;2023-05-10T11:19:12;986.97;;;592.13;;
75062;SDS011;63981;51.052;13.754;2023-05-10T11:24:36;968.13;;;575.25;;
75062;SDS011;63981;51.052;13.754;2023-05-10T11:27:02;910.40;;;551.80;;
75062;SDS011;63981;51.052;13.754;2023-05-10T11:29:28;901.80;;;545.63;;
75062;SDS011;63981;51.052;13.754;2023-05-10T11:31:56;894.63;;;543.13;;
75062;SDS011;63981;51.052;13.754;2023-05-10T11:34:24;895.70;;;542.45;;
75062;SDS011;63981;51.052;13.754;2023-05-10T11:36:59;910.05;;;548.28;;
75062;SDS011;63981;51.052;13.754;2023-05-10T11:39:26;921.72;;;554.33;;
75062;SDS011;63981;51.052;13.754;2023-05-10T11:41:53;909.28;;;546.80;;
75062;SDS011;63981;51.052;13.754;2023-05-10T11:44:19;958.88;;;572.28;;
75062;SDS011;63981;51.052;13.754;2023-05-10T11:46:45;944.05;;;561.88;;
75062;SDS011;63981;51.052;13.754;2023-05-10T11:49:11;926.35;;;559.55;;
75062;SDS011;63981;51.052;13.754;2023-05-10T11:51:38;925.63;;;561.85;;
75062;SDS011;63981;51.052;13.754;2023-05-10T11:54:08;931.88;;;565.47;;
75062;SDS011;63981;51.052;13.754;2023-05-10T11:56:36;943.40;;;573.58;;
75062;SDS011;63981;51.052;13.754;2023-05-10T11:59:03;946.78;;;577.90;;
75062;SDS011;63981;51.052;13.754;2023-05-10T12:01:29;918.97;;;559.97;;
75062;SDS011;63981;51.052;13.754;2023-05-10T12:03:56;927.17;;;562.10;;
75062;SDS011;63981;51.052;13.754;2023-05-10T12:06:26;930.72;;;559.90;;
75062;SDS011;63981;51.052;13.754;2023-05-10T12:08:53;942.78;;;558.30;;
75062;SDS011;63981;51.052;13.754;2023-05-10T12:11:19;1080.57;;;601.30;;
75062;SDS011;63981;51.052;13.754;2023-05-10T12:16:13;1031.40;;;601.53;;
75062;SDS011;63981;51.052;13.754;2023-05-10T12:18:43;1033.53;;;595.35;;
75062;SDS011;63981;51.052;13.754;2023-05-10T12:21:11;1086.57;;;639.60;;
75062;SDS011;63981;51.052;13.754;2023-05-10T12:23:38;1086.10;;;646.05;;
75062;SDS011;63981;51.052;13.754;2023-05-10T12:26:04;1067.85;;;641.55;;
75062;SDS011;63981;51.052;13.754;2023-05-10T12:28:31;1019.58;;;620.97;;
75062;SDS011;63981;51.052;13.754;2023-05-10T12:31:01;1013.92;;;611.50;;
75062;SDS011;63981;51.052;13.754;2023-05-10T12:33:35;1008.83;;;607.95;;
75062;SDS011;63981;51.052;13.754;2023-05-10T12:41:02;1077.10;;;633.80;;
75062;SDS011;63981;51.052;13.754;2023-05-10T12:43:28;1071.15;;;634.83;;
75062;SDS011;63981;51.052;13.754;2023-05-10T12:45:55;1076.75;;;639.75;;
75062;SDS011;63981;51.052;13.754;2023-05-10T12:48:21;1068.93;;;636.85;;
75062;SDS011;63981;51.052;13.754;2023-05-10T12:50:47;1061.03;;;634.13;;
75062;SDS011;63981;51.052;13.754;2023-05-10T12:53:14;1090.78;;;648.78;;
75062;SDS011;63981;51.052;13.754;2023-05-10T12:55:43;1086.57;;;649.92;;
75062;SDS011;63981;51.052;13.754;2023-05-10T12:58:09;1070.32;;;639.97;;
75062;SDS011;63981;51.052;13.754;2023-05-10T13:00:35;1061.00;;;631.85;;
75062;SDS011;63981;51.052;13.754;2023-05-10T13:03:03;1060.15;;;628.72;;
75062;SDS011;63981;51.052;13.754;2023-05-10T13:05:33;1065.32;;;627.92;;
75062;SDS011;63981;51.052;13.754;2023-05-10T13:07:59;1102.68;;;652.85;;
75062;SDS011;63981;51.052;13.754;2023-05-10T13:10:25;1093.18;;;646.67;;
75062;SDS011;63981;51.052;13.754;2023-05-10T13:12:51;1113.30;;;642.47;;
75062;SDS011;63981;51.052;13.754;2023-05-10T13:15:17;1092.47;;;638.30;;
75062;SDS011;63981;51.052;13.754;2023-05-10T13:17:42;1080.10;;;633.17;;
75062;SDS011;63981;51.052;13.754;2023-05-10T13:20:09;1058.28;;;622.72;;
75062;SDS011;63981;51.052;13.754;2023-05-10T13:22:35;1051.93;;;622.78;;
75062;SDS011;63981;51.052;13.754;2023-05-10T13:25:01;1047.57;;;619.63;;
75062;SDS011;63981;51.052;13.754;2023-05-10T13:27:27;1107.32;;;646.33;;
75062;SDS011;63981;51.052;13.754;2023-05-10T13:29:54;1084.53;;;639.03;;
75062;SDS011;63981;51.052;13.754;2023-05-10T13:32:20;1006.53;;;591.38;;
75062;SDS011;63981;51.052;13.754;2023-05-10T13:34:46;999.17;;;590.22;;
75062;SDS011;63981;51.052;13.754;2023-05-10T13:37:12;995.10;;;588.15;;
75062;SDS011;63981;51.052;13.754;2023-05-10T13:39:38;986.45;;;588.80;;
75062;SDS011;63981;51.052;13.754;2023-05-10T13:42:05;983.78;;;590.47;;
75062;SDS011;63981;51.052;13.754;2023-05-10T13:44:30;966.40;;;586.17;;
75062;SDS011;63981;51.052;13.754;2023-05-10T13:46:56;959.88;;;583.30;;
75062;SDS011;63981;51.052;13.754;2023-05-10T13:49:22;964.55;;;583.63;;
75062;SDS011;63981;51.052;13.754;2023-05-10T13:51:48;1027.43;;;605.00;;
75062;SDS011;63981;51.052;13.754;2023-05-10T13:54:14;1018.05;;;605.47;;
75062;SDS011;63981;51.052;13.754;2023-05-10T13:56:41;1000.20;;;603.05;;
75062;SDS011;63981;51.052;13.754;2023-05-10T13:59:07;998.75;;;601.20;;
75062;SDS011;63981;51.052;13.754;2023-05-10T14:01:33;998.30;;;599.72;;
75062;SDS011;63981;51.052;13.754;2023-05-10T14:03:59;993.85;;;598.70;;
75062;SDS011;63981;51.052;13.754;2023-05-10T14:06:25;1051.82;;;615.72;;
75062;SDS011;63981;51.052;13.754;2023-05-10T14:08:52;1039.88;;;609.78;;
75062;SDS011;63981;51.052;13.754;2023-05-10T14:11:19;1028.28;;;602.42;;
75062;SDS011;63981;51.052;13.754;2023-05-10T14:13:45;1028.28;;;599.22;;
75062;SDS011;63981;51.052;13.754;2023-05-10T14:16:11;989.42;;;593.65;;
75062;SDS011;63981;51.052;13.754;2023-05-10T14:18:37;980.92;;;591.95;;
75062;SDS011;63981;51.052;13.754;2023-05-10T14:21:06;966.95;;;590.25;;
75062;SDS011;63981;51.052;13.754;2023-05-10T14:23:32;987.53;;;601.15;;
75062;SDS011;63981;51.052;13.754;2023-05-10T14:25:57;984.83;;;601.63;;
75062;SDS011;63981;51.052;13.754;2023-05-10T14:28:23;979.85;;;604.00;;
75062;SDS011;63981;51.052;13.754;2023-05-10T14:30:50;970.13;;;601.03;;
75062;SDS011;63981;51.052;13.754;2023-05-10T14:33:16;965.40;;;600.03;;
75062;SDS011;63981;51.052;13.754;2023-05-10T14:35:42;963.63;;;602.67;;
75062;SDS011;63981;51.052;13.754;2023-05-10T14:38:08;978.88;;;613.20;;
75062;SDS011;63981;51.052;13.754;2023-05-10T14:40:34;971.17;;;615.83;;
75062;SDS011;63981;51.052;13.754;2023-05-10T14:43:00;974.42;;;619.72;;
75062;SDS011;63981;51.052;13.754;2023-05-10T14:45:26;966.03;;;623.90;;
75062;SDS011;63981;51.052;13.754;2023-05-10T14:47:52;953.35;;;617.28;;